sensor_id;sensor_type;location;lat;lon;timestamp;temperature;humidity
3300;DHT22;1662;49.310;8.134;2023-08-06T00:00:46;16.40;99.90
3300;DHT22;1662;49.310;8.134;2023-08-06T00:03:11;16.40;99.90
3300;DHT22;1662;49.310;8.134;2023-08-06T00:05:37;16.40;99.90
3300;DHT22;1662;49.310;8.134;2023-08-06T00:08:02;16.40;99.90
3300;DHT22;1662;49.310;8.134;2023-08-06T00:10:28;16.40;99.90
3300;DHT22;1662;49.310;8.134;2023-08-06T00:12:54;16.40;99.90
3300;DHT22;1662;49.310;8.134;2023-08-06T00:15:19;16.40;99.90
3300;DHT22;1662;49.310;8.134;2023-08-06T00:17:45;16.40;99.90
3300;DHT22;1662;49.310;8.134;2023-08-06T00:20:11;16.40;99.90
3300;DHT22;1662;49.310;8.134;2023-08-06T00:22:37;16.40;99.90
3300;DHT22;1662;49.310;8.134;2023-08-06T00:25:04;16.40;99.90
3300;DHT22;1662;49.310;8.134;2023-08-06T00:27:32;16.40;99.90
3300;DHT22;1662;49.310;8.134;2023-08-06T00:30:00;16.30;99.90
3300;DHT22;1662;49.310;8.134;2023-08-06T00:32:26;16.30;99.90
3300;DHT22;1662;49.310;8.134;2023-08-06T00:34:51;16.30;99.90
3300;DHT22;1662;49.310;8.134;2023-08-06T00:37:17;16.20;99.90
3300;DHT22;1662;49.310;8.134;2023-08-06T00:39:43;16.30;99.90
3300;DHT22;1662;49.310;8.134;2023-08-06T00:42:14;16.20;99.90
3300;DHT22;1662;49.310;8.134;2023-08-06T00:44:41;16.20;99.90
3300;DHT22;1662;49.310;8.134;2023-08-06T00:47:07;16.20;99.90
3300;DHT22;1662;49.310;8.134;2023-08-06T00:49:35;16.20;99.90
3300;DHT22;1662;49.310;8.134;2023-08-06T00:52:01;16.20;99.90
3300;DHT22;1662;49.310;8.134;2023-08-06T00:54:27;16.20;99.90
3300;DHT22;1662;49.310;8.134;2023-08-06T00:56:54;16.20;99.90
3300;DHT22;1662;49.310;8.134;2023-08-06T00:59:19;16.20;99.90
3300;DHT22;1662;49.310;8.134;2023-08-06T01:01:45;16.10;99.90
3300;DHT22;1662;49.310;8.134;2023-08-06T01:04:12;16.10;99.90
3300;DHT22;1662;49.310;8.134;2023-08-06T01:06:50;16.10;99.90
3300;DHT22;1662;49.310;8.134;2023-08-06T01:17:18;16.00;99.90
3300;DHT22;1662;49.310;8.134;2023-08-06T01:19:44;16.00;99.90
3300;DHT22;1662;49.310;8.134;2023-08-06T01:22:09;16.00;99.90
3300;DHT22;1662;49.310;8.134;2023-08-06T01:24:39;16.00;99.90
3300;DHT22;1662;49.310;8.134;2023-08-06T01:27:07;16.00;99.90
3300;DHT22;1662;49.310;8.134;2023-08-06T01:29:44;15.90;99.90
3300;DHT22;1662;49.310;8.134;2023-08-06T01:32:12;15.90;99.90
3300;DHT22;1662;49.310;8.134;2023-08-06T01:34:40;15.90;99.90
3300;DHT22;1662;49.310;8.134;2023-08-06T01:37:07;15.90;99.90
3300;DHT22;1662;49.310;8.134;2023-08-06T01:39:35;15.90;99.90
3300;DHT22;1662;49.310;8.134;2023-08-06T01:42:01;15.90;99.90
3300;DHT22;1662;49.310;8.134;2023-08-06T01:44:27;15.90;99.90
3300;DHT22;1662;49.310;8.134;2023-08-06T01:46:53;15.90;99.90
3300;DHT22;1662;49.310;8.134;2023-08-06T01:49:18;15.90;99.90
3300;DHT22;1662;49.310;8.134;2023-08-06T01:51:44;15.80;99.90
3300;DHT22;1662;49.310;8.134;2023-08-06T01:54:09;15.80;99.90
3300;DHT22;1662;49.310;8.134;2023-08-06T01:56:35;15.80;99.90
3300;DHT22;1662;49.310;8.134;2023-08-06T01:59:02;15.80;99.90
3300;DHT22;1662;49.310;8.134;2023-08-06T02:01:28;15.80;99.90
3300;DHT22;1662;49.310;8.134;2023-08-06T02:03:54;15.80;99.90
3300;DHT22;1662;49.310;8.134;2023-08-06T02:06:19;15.80;99.90
3300;DHT22;1662;49.310;8.134;2023-08-06T02:08:45;15.70;99.90
3300;DHT22;1662;49.310;8.134;2023-08-06T02:11:11;15.80;99.90
3300;DHT22;1662;49.310;8.134;2023-08-06T02:13:38;15.80;99.90
3300;DHT22;1662;49.310;8.134;2023-08-06T02:16:07;15.90;99.90
3300;DHT22;1662;49.310;8.134;2023-08-06T02:18:35;15.90;99.90
3300;DHT22;1662;49.310;8.134;2023-08-06T02:21:00;15.90;99.90
3300;DHT22;1662;49.310;8.134;2023-08-06T02:23:26;15.90;99.90
3300;DHT22;1662;49.310;8.134;2023-08-06T02:28:24;16.00;99.90
3300;DHT22;1662;49.310;8.134;2023-08-06T02:30:52;16.00;99.90
3300;DHT22;1662;49.310;8.134;2023-08-06T02:33:18;16.00;99.90
3300;DHT22;1662;49.310;8.134;2023-08-06T02:35:44;16.00;99.90
3300;DHT22;1662;49.310;8.134;2023-08-06T02:38:09;16.00;99.90
3300;DHT22;1662;49.310;8.134;2023-08-06T02:40:35;15.90;99.90
3300;DHT22;1662;49.310;8.134;2023-08-06T02:43:00;16.00;99.90
3300;DHT22;1662;49.310;8.134;2023-08-06T02:45:26;16.00;99.90
3300;DHT22;1662;49.310;8.134;2023-08-06T02:47:52;16.00;99.90
3300;DHT22;1662;49.310;8.134;2023-08-06T02:50:17;16.00;99.90
3300;DHT22;1662;49.310;8.134;2023-08-06T02:52:43;16.00;99.90
3300;DHT22;1662;49.310;8.134;2023-08-06T02:55:08;16.00;99.90
3300;DHT22;1662;49.310;8.134;2023-08-06T02:57:34;16.00;99.90
3300;DHT22;1662;49.310;8.134;2023-08-06T03:00:00;16.00;99.90
3300;DHT22;1662;49.310;8.134;2023-08-06T03:02:25;15.90;99.90
3300;DHT22;1662;49.310;8.134;2023-08-06T03:04:51;16.00;99.90
3300;DHT22;1662;49.310;8.134;2023-08-06T03:07:18;15.90;99.90
3300;DHT22;1662;49.310;8.134;2023-08-06T03:09:44;15.90;99.90
3300;DHT22;1662;49.310;8.134;2023-08-06T03:12:09;16.00;99.90
3300;DHT22;1662;49.310;8.134;2023-08-06T03:14:37;16.00;99.90
3300;DHT22;1662;49.310;8.134;2023-08-06T03:17:03;16.00;99.90
3300;DHT22;1662;49.310;8.134;2023-08-06T03:19:29;15.90;99.90
3300;DHT22;1662;49.310;8.134;2023-08-06T03:21:54;15.90;99.90
3300;DHT22;1662;49.310;8.134;2023-08-06T03:24:20;15.90;99.90
3300;DHT22;1662;49.310;8.134;2023-08-06T03:26:45;15.90;99.90
3300;DHT22;1662;49.310;8.134;2023-08-06T03:29:11;15.90;99.90
3300;DHT22;1662;49.310;8.134;2023-08-06T03:31:37;15.90;99.90
3300;DHT22;1662;49.310;8.134;2023-08-06T03:34:02;15.90;99.90
3300;DHT22;1662;49.310;8.134;2023-08-06T03:36:30;15.90;99.90
3300;DHT22;1662;49.310;8.134;2023-08-06T03:38:56;15.90;99.90
3300;DHT22;1662;49.310;8.134;2023-08-06T03:41:21;15.90;99.90
3300;DHT22;1662;49.310;8.134;2023-08-06T03:43:47;15.80;99.90
3300;DHT22;1662;49.310;8.134;2023-08-06T03:46:12;15.80;99.90
3300;DHT22;1662;49.310;8.134;2023-08-06T03:48:38;15.80;99.90
3300;DHT22;1662;49.310;8.134;2023-08-06T03:51:03;15.80;99.90
3300;DHT22;1662;49.310;8.134;2023-08-06T03:53:29;15.70;99.90
3300;DHT22;1662;49.310;8.134;2023-08-06T03:55:55;15.80;99.90
3300;DHT22;1662;49.310;8.134;2023-08-06T03:58:25;15.70;99.90
3300;DHT22;1662;49.310;8.134;2023-08-06T04:01:01;15.70;99.90
3300;DHT22;1662;49.310;8.134;2023-08-06T04:03:26;15.70;99.90
3300;DHT22;1662;49.310;8.134;2023-08-06T04:05:52;15.70;99.90
3300;DHT22;1662;49.310;8.134;2023-08-06T04:08:18;15.60;99.90
3300;DHT22;1662;49.310;8.134;2023-08-06T04:10:43;15.60;99.90
3300;DHT22;1662;49.310;8.134;2023-08-06T04:13:09;15.60;99.90
3300;DHT22;1662;49.310;8.134;2023-08-06T04:15:34;15.60;99.90
3300;DHT22;1662;49.310;8.134;2023-08-06T04:18:00;15.50;99.90
3300;DHT22;1662;49.310;8.134;2023-08-06T04:20:26;15.60;99.90
3300;DHT22;1662;49.310;8.134;2023-08-06T04:22:53;15.60;99.90
3300;DHT22;1662;49.310;8.134;2023-08-06T04:25:19;15.50;99.90
3300;DHT22;1662;49.310;8.134;2023-08-06T04:27:49;15.50;99.90
3300;DHT22;1662;49.310;8.134;2023-08-06T04:30:15;15.50;99.90
3300;DHT22;1662;49.310;8.134;2023-08-06T04:32:41;15.40;99.90
3300;DHT22;1662;49.310;8.134;2023-08-06T04:35:07;15.50;99.90
3300;DHT22;1662;49.310;8.134;2023-08-06T04:37:32;15.50;99.90
3300;DHT22;1662;49.310;8.134;2023-08-06T04:39:58;15.50;99.90
3300;DHT22;1662;49.310;8.134;2023-08-06T04:42:23;15.50;99.90
3300;DHT22;1662;49.310;8.134;2023-08-06T04:44:50;15.50;99.90
3300;DHT22;1662;49.310;8.134;2023-08-06T04:47:15;15.40;99.90
3300;DHT22;1662;49.310;8.134;2023-08-06T04:49:43;15.40;99.90
3300;DHT22;1662;49.310;8.134;2023-08-06T04:52:09;15.40;99.90
3300;DHT22;1662;49.310;8.134;2023-08-06T04:54:34;15.40;99.90
3300;DHT22;1662;49.310;8.134;2023-08-06T04:57:00;15.40;99.90
3300;DHT22;1662;49.310;8.134;2023-08-06T04:59:27;15.50;99.90
3300;DHT22;1662;49.310;8.134;2023-08-06T05:01:53;15.40;99.90
3300;DHT22;1662;49.310;8.134;2023-08-06T05:04:19;15.40;99.90
3300;DHT22;1662;49.310;8.134;2023-08-06T05:06:44;15.50;99.90
3300;DHT22;1662;49.310;8.134;2023-08-06T05:09:10;15.50;99.90
3300;DHT22;1662;49.310;8.134;2023-08-06T05:11:38;15.50;99.90
3300;DHT22;1662;49.310;8.134;2023-08-06T05:14:04;15.50;99.90
3300;DHT22;1662;49.310;8.134;2023-08-06T05:16:29;15.50;99.90
3300;DHT22;1662;49.310;8.134;2023-08-06T05:18:55;15.50;99.90
3300;DHT22;1662;49.310;8.134;2023-08-06T05:21:21;15.50;99.90
3300;DHT22;1662;49.310;8.134;2023-08-06T05:23:46;15.50;99.90
3300;DHT22;1662;49.310;8.134;2023-08-06T05:26:12;15.50;99.90
3300;DHT22;1662;49.310;8.134;2023-08-06T05:28:40;15.50;99.90
3300;DHT22;1662;49.310;8.134;2023-08-06T05:31:06;15.50;99.90
3300;DHT22;1662;49.310;8.134;2023-08-06T05:33:32;15.50;99.90
3300;DHT22;1662;49.310;8.134;2023-08-06T05:35:57;15.60;99.90
3300;DHT22;1662;49.310;8.134;2023-08-06T05:38:26;15.60;99.90
3300;DHT22;1662;49.310;8.134;2023-08-06T05:40:51;15.70;99.90
3300;DHT22;1662;49.310;8.134;2023-08-06T05:43:17;15.70;99.90
3300;DHT22;1662;49.310;8.134;2023-08-06T05:45:46;15.70;99.90
3300;DHT22;1662;49.310;8.134;2023-08-06T05:48:12;15.80;99.90
3300;DHT22;1662;49.310;8.134;2023-08-06T05:50:37;15.80;99.90
3300;DHT22;1662;49.310;8.134;2023-08-06T05:53:03;15.80;99.90
3300;DHT22;1662;49.310;8.134;2023-08-06T05:55:29;15.80;99.90
3300;DHT22;1662;49.310;8.134;2023-08-06T05:57:55;15.80;99.90
3300;DHT22;1662;49.310;8.134;2023-08-06T06:00:21;15.70;99.90
3300;DHT22;1662;49.310;8.134;2023-08-06T06:02:47;15.70;99.90
3300;DHT22;1662;49.310;8.134;2023-08-06T06:05:12;15.70;99.90
3300;DHT22;1662;49.310;8.134;2023-08-06T06:07:38;15.70;99.90
3300;DHT22;1662;49.310;8.134;2023-08-06T06:10:04;15.70;99.90
3300;DHT22;1662;49.310;8.134;2023-08-06T06:12:30;15.60;99.90
3300;DHT22;1662;49.310;8.134;2023-08-06T06:14:55;15.70;99.90
3300;DHT22;1662;49.310;8.134;2023-08-06T06:17:21;15.60;99.90
3300;DHT22;1662;49.310;8.134;2023-08-06T06:19:47;15.60;99.90
3300;DHT22;1662;49.310;8.134;2023-08-06T06:22:13;15.60;99.90
3300;DHT22;1662;49.310;8.134;2023-08-06T06:24:39;15.70;99.90
3300;DHT22;1662;49.310;8.134;2023-08-06T06:27:05;15.70;99.90
3300;DHT22;1662;49.310;8.134;2023-08-06T06:29:30;15.70;99.90
3300;DHT22;1662;49.310;8.134;2023-08-06T06:31:56;15.70;99.90
3300;DHT22;1662;49.310;8.134;2023-08-06T06:34:21;15.80;99.90
3300;DHT22;1662;49.310;8.134;2023-08-06T06:36:47;15.80;99.90
3300;DHT22;1662;49.310;8.134;2023-08-06T06:39:13;15.90;99.90
3300;DHT22;1662;49.310;8.134;2023-08-06T06:41:38;15.90;99.90
3300;DHT22;1662;49.310;8.134;2023-08-06T06:44:06;15.90;99.90
3300;DHT22;1662;49.310;8.134;2023-08-06T06:46:32;16.00;99.90
3300;DHT22;1662;49.310;8.134;2023-08-06T06:48:57;16.00;99.90
3300;DHT22;1662;49.310;8.134;2023-08-06T06:51:23;16.00;99.90
3300;DHT22;1662;49.310;8.134;2023-08-06T06:53:49;16.00;99.90
3300;DHT22;1662;49.310;8.134;2023-08-06T06:56:14;16.10;99.90
3300;DHT22;1662;49.310;8.134;2023-08-06T06:58:40;16.10;99.90
3300;DHT22;1662;49.310;8.134;2023-08-06T07:01:07;16.10;99.90
3300;DHT22;1662;49.310;8.134;2023-08-06T07:03:35;16.10;99.90
3300;DHT22;1662;49.310;8.134;2023-08-06T07:06:01;16.00;99.90
3300;DHT22;1662;49.310;8.134;2023-08-06T07:08:27;16.00;99.90
3300;DHT22;1662;49.310;8.134;2023-08-06T07:11:03;16.10;99.90
3300;DHT22;1662;49.310;8.134;2023-08-06T07:13:29;16.20;99.90
3300;DHT22;1662;49.310;8.134;2023-08-06T07:15:55;16.20;99.90
3300;DHT22;1662;49.310;8.134;2023-08-06T07:18:21;16.20;99.90
3300;DHT22;1662;49.310;8.134;2023-08-06T07:20:51;16.30;99.90
3300;DHT22;1662;49.310;8.134;2023-08-06T07:23:18;16.40;99.90
3300;DHT22;1662;49.310;8.134;2023-08-06T07:25:47;16.60;99.90
3300;DHT22;1662;49.310;8.134;2023-08-06T07:28:13;16.60;99.90
3300;DHT22;1662;49.310;8.134;2023-08-06T07:30:39;16.60;99.90
3300;DHT22;1662;49.310;8.134;2023-08-06T07:33:07;16.70;99.90
3300;DHT22;1662;49.310;8.134;2023-08-06T07:35:33;16.70;99.90
3300;DHT22;1662;49.310;8.134;2023-08-06T07:37:59;16.70;99.90
3300;DHT22;1662;49.310;8.134;2023-08-06T07:40:24;16.70;99.90
3300;DHT22;1662;49.310;8.134;2023-08-06T07:42:50;16.70;99.90
3300;DHT22;1662;49.310;8.134;2023-08-06T07:45:16;16.70;99.90
3300;DHT22;1662;49.310;8.134;2023-08-06T07:47:41;16.60;99.90
3300;DHT22;1662;49.310;8.134;2023-08-06T07:50:09;16.60;99.90
3300;DHT22;1662;49.310;8.134;2023-08-06T07:52:34;16.50;99.90
3300;DHT22;1662;49.310;8.134;2023-08-06T07:55:00;16.50;99.90
3300;DHT22;1662;49.310;8.134;2023-08-06T07:57:27;16.40;99.90
3300;DHT22;1662;49.310;8.134;2023-08-06T07:59:52;16.40;99.90
3300;DHT22;1662;49.310;8.134;2023-08-06T08:02:19;16.50;99.90
3300;DHT22;1662;49.310;8.134;2023-08-06T08:04:45;16.50;99.90
3300;DHT22;1662;49.310;8.134;2023-08-06T08:07:12;16.50;99.90
3300;DHT22;1662;49.310;8.134;2023-08-06T08:09:38;16.50;99.90
3300;DHT22;1662;49.310;8.134;2023-08-06T08:12:04;16.50;99.90
3300;DHT22;1662;49.310;8.134;2023-08-06T08:14:30;16.50;99.90
3300;DHT22;1662;49.310;8.134;2023-08-06T08:17:01;16.60;99.90
3300;DHT22;1662;49.310;8.134;2023-08-06T08:19:30;16.70;99.90
3300;DHT22;1662;49.310;8.134;2023-08-06T08:21:55;16.80;99.90
3300;DHT22;1662;49.310;8.134;2023-08-06T08:24:21;16.80;99.90
3300;DHT22;1662;49.310;8.134;2023-08-06T08:26:50;16.80;99.90
3300;DHT22;1662;49.310;8.134;2023-08-06T08:29:16;16.90;99.90
3300;DHT22;1662;49.310;8.134;2023-08-06T08:31:41;16.90;99.90
3300;DHT22;1662;49.310;8.134;2023-08-06T08:34:08;16.90;99.90
3300;DHT22;1662;49.310;8.134;2023-08-06T08:36:36;16.90;99.90
3300;DHT22;1662;49.310;8.134;2023-08-06T08:39:02;16.90;99.90
3300;DHT22;1662;49.310;8.134;2023-08-06T08:41:29;16.90;99.90
3300;DHT22;1662;49.310;8.134;2023-08-06T08:43:56;16.90;99.90
3300;DHT22;1662;49.310;8.134;2023-08-06T08:46:25;16.90;99.90
3300;DHT22;1662;49.310;8.134;2023-08-06T08:48:52;16.90;99.90
3300;DHT22;1662;49.310;8.134;2023-08-06T08:51:18;16.90;99.90
3300;DHT22;1662;49.310;8.134;2023-08-06T08:53:49;16.90;99.90
3300;DHT22;1662;49.310;8.134;2023-08-06T08:56:15;17.00;99.90
3300;DHT22;1662;49.310;8.134;2023-08-06T08:58:44;17.10;99.90
3300;DHT22;1662;49.310;8.134;2023-08-06T09:01:10;17.10;99.90
3300;DHT22;1662;49.310;8.134;2023-08-06T09:03:36;17.10;99.90
3300;DHT22;1662;49.310;8.134;2023-08-06T09:06:03;17.10;99.90
3300;DHT22;1662;49.310;8.134;2023-08-06T09:08:35;17.10;99.90
3300;DHT22;1662;49.310;8.134;2023-08-06T09:11:03;17.10;99.90
3300;DHT22;1662;49.310;8.134;2023-08-06T09:13:29;17.10;99.90
3300;DHT22;1662;49.310;8.134;2023-08-06T09:15:55;17.10;99.90
3300;DHT22;1662;49.310;8.134;2023-08-06T09:18:28;17.10;99.90
3300;DHT22;1662;49.310;8.134;2023-08-06T09:20:54;17.10;99.90
3300;DHT22;1662;49.310;8.134;2023-08-06T09:23:20;17.20;99.90
3300;DHT22;1662;49.310;8.134;2023-08-06T09:25:46;17.10;99.90
3300;DHT22;1662;49.310;8.134;2023-08-06T09:28:12;17.10;99.90
3300;DHT22;1662;49.310;8.134;2023-08-06T09:30:38;17.20;99.90
3300;DHT22;1662;49.310;8.134;2023-08-06T09:33:08;17.20;99.90
3300;DHT22;1662;49.310;8.134;2023-08-06T09:35:37;17.20;99.90
3300;DHT22;1662;49.310;8.134;2023-08-06T09:38:09;17.20;99.90
3300;DHT22;1662;49.310;8.134;2023-08-06T09:40:36;17.10;99.90
3300;DHT22;1662;49.310;8.134;2023-08-06T09:43:02;17.10;99.90
3300;DHT22;1662;49.310;8.134;2023-08-06T09:45:35;17.10;99.90
3300;DHT22;1662;49.310;8.134;2023-08-06T09:48:08;17.00;99.90
3300;DHT22;1662;49.310;8.134;2023-08-06T09:50:37;17.00;99.90
3300;DHT22;1662;49.310;8.134;2023-08-06T09:53:05;17.00;99.90
3300;DHT22;1662;49.310;8.134;2023-08-06T09:55:32;16.90;99.90
3300;DHT22;1662;49.310;8.134;2023-08-06T09:57:58;16.90;99.90
3300;DHT22;1662;49.310;8.134;2023-08-06T10:00:25;16.90;99.90
3300;DHT22;1662;49.310;8.134;2023-08-06T10:02:53;16.80;99.90
3300;DHT22;1662;49.310;8.134;2023-08-06T10:05:22;16.80;99.90
3300;DHT22;1662;49.310;8.134;2023-08-06T10:07:49;16.80;99.90
3300;DHT22;1662;49.310;8.134;2023-08-06T10:10:16;16.80;99.90
3300;DHT22;1662;49.310;8.134;2023-08-06T10:12:48;16.90;99.90
3300;DHT22;1662;49.310;8.134;2023-08-06T10:15:17;16.80;99.90
3300;DHT22;1662;49.310;8.134;2023-08-06T10:17:47;16.80;99.90
3300;DHT22;1662;49.310;8.134;2023-08-06T10:20:15;16.80;99.90
3300;DHT22;1662;49.310;8.134;2023-08-06T10:22:44;16.80;99.90
3300;DHT22;1662;49.310;8.134;2023-08-06T10:25:16;16.70;99.90
3300;DHT22;1662;49.310;8.134;2023-08-06T10:30:30;16.70;99.90
3300;DHT22;1662;49.310;8.134;2023-08-06T10:33:03;16.70;99.90
3300;DHT22;1662;49.310;8.134;2023-08-06T10:35:48;16.60;99.90
3300;DHT22;1662;49.310;8.134;2023-08-06T10:38:22;16.60;99.90
3300;DHT22;1662;49.310;8.134;2023-08-06T10:43:33;16.60;99.90
3300;DHT22;1662;49.310;8.134;2023-08-06T10:46:02;16.60;99.90
3300;DHT22;1662;49.310;8.134;2023-08-06T10:51:09;16.50;99.90
3300;DHT22;1662;49.310;8.134;2023-08-06T10:53:35;16.40;99.90
3300;DHT22;1662;49.310;8.134;2023-08-06T10:56:02;16.50;99.90
3300;DHT22;1662;49.310;8.134;2023-08-06T10:58:33;16.40;99.90
3300;DHT22;1662;49.310;8.134;2023-08-06T11:00:59;16.40;99.90
3300;DHT22;1662;49.310;8.134;2023-08-06T11:03:27;16.40;99.90
3300;DHT22;1662;49.310;8.134;2023-08-06T11:05:52;16.40;99.90
3300;DHT22;1662;49.310;8.134;2023-08-06T11:08:28;16.30;99.90
3300;DHT22;1662;49.310;8.134;2023-08-06T11:10:54;16.30;99.90
3300;DHT22;1662;49.310;8.134;2023-08-06T11:13:23;16.30;99.90
3300;DHT22;1662;49.310;8.134;2023-08-06T11:15:49;16.30;99.90
3300;DHT22;1662;49.310;8.134;2023-08-06T11:18:17;16.40;99.90
3300;DHT22;1662;49.310;8.134;2023-08-06T11:20:43;16.40;99.90
3300;DHT22;1662;49.310;8.134;2023-08-06T11:23:10;16.40;99.90
3300;DHT22;1662;49.310;8.134;2023-08-06T11:25:44;16.40;99.90
3300;DHT22;1662;49.310;8.134;2023-08-06T11:28:13;16.40;99.90
3300;DHT22;1662;49.310;8.134;2023-08-06T11:30:39;16.40;99.90
3300;DHT22;1662;49.310;8.134;2023-08-06T11:33:07;16.40;99.90
3300;DHT22;1662;49.310;8.134;2023-08-06T11:35:35;16.40;99.90
3300;DHT22;1662;49.310;8.134;2023-08-06T11:38:01;16.40;99.90
3300;DHT22;1662;49.310;8.134;2023-08-06T11:40:27;16.50;99.90
3300;DHT22;1662;49.310;8.134;2023-08-06T11:42:52;16.50;99.90
3300;DHT22;1662;49.310;8.134;2023-08-06T11:45:22;16.60;99.90
3300;DHT22;1662;49.310;8.134;2023-08-06T11:47:50;16.60;99.90
3300;DHT22;1662;49.310;8.134;2023-08-06T11:50:25;16.60;99.90
3300;DHT22;1662;49.310;8.134;2023-08-06T11:52:54;16.70;99.90
3300;DHT22;1662;49.310;8.134;2023-08-06T11:55:23;16.70;99.90
3300;DHT22;1662;49.310;8.134;2023-08-06T11:57:49;16.70;99.90
3300;DHT22;1662;49.310;8.134;2023-08-06T12:00:15;16.70;99.90
3300;DHT22;1662;49.310;8.134;2023-08-06T12:02:45;16.70;99.90
3300;DHT22;1662;49.310;8.134;2023-08-06T12:05:13;16.70;99.90
3300;DHT22;1662;49.310;8.134;2023-08-06T12:07:41;16.70;99.90
3300;DHT22;1662;49.310;8.134;2023-08-06T12:10:07;16.60;99.90
3300;DHT22;1662;49.310;8.134;2023-08-06T12:12:36;16.50;99.90
3300;DHT22;1662;49.310;8.134;2023-08-06T12:15:06;16.40;99.90
3300;DHT22;1662;49.310;8.134;2023-08-06T12:17:32;16.30;99.90
3300;DHT22;1662;49.310;8.134;2023-08-06T12:19:58;16.30;99.90
3300;DHT22;1662;49.310;8.134;2023-08-06T12:22:24;16.20;99.90
3300;DHT22;1662;49.310;8.134;2023-08-06T12:24:49;16.20;99.90
3300;DHT22;1662;49.310;8.134;2023-08-06T12:27:15;16.20;99.90
3300;DHT22;1662;49.310;8.134;2023-08-06T12:29:45;16.10;99.90
3300;DHT22;1662;49.310;8.134;2023-08-06T12:32:11;16.10;99.90
3300;DHT22;1662;49.310;8.134;2023-08-06T12:34:41;16.10;99.90
3300;DHT22;1662;49.310;8.134;2023-08-06T12:37:08;16.10;99.90
3300;DHT22;1662;49.310;8.134;2023-08-06T12:39:37;16.10;99.90
3300;DHT22;1662;49.310;8.134;2023-08-06T12:42:04;16.00;99.90
3300;DHT22;1662;49.310;8.134;2023-08-06T12:44:30;16.00;99.90
3300;DHT22;1662;49.310;8.134;2023-08-06T12:46:57;16.00;99.90
3300;DHT22;1662;49.310;8.134;2023-08-06T12:49:23;16.00;99.90
3300;DHT22;1662;49.310;8.134;2023-08-06T12:51:52;16.00;99.90
3300;DHT22;1662;49.310;8.134;2023-08-06T12:54:19;16.10;99.90
3300;DHT22;1662;49.310;8.134;2023-08-06T12:56:45;16.10;99.90
3300;DHT22;1662;49.310;8.134;2023-08-06T12:59:11;16.10;99.90
3300;DHT22;1662;49.310;8.134;2023-08-06T13:01:37;16.10;99.90
3300;DHT22;1662;49.310;8.134;2023-08-06T13:04:03;16.10;99.90
3300;DHT22;1662;49.310;8.134;2023-08-06T13:06:29;16.00;99.90
3300;DHT22;1662;49.310;8.134;2023-08-06T13:08:56;16.00;99.90
3300;DHT22;1662;49.310;8.134;2023-08-06T13:11:23;15.90;99.90
3300;DHT22;1662;49.310;8.134;2023-08-06T13:13:48;15.90;99.90
3300;DHT22;1662;49.310;8.134;2023-08-06T13:16:15;15.90;99.90
3300;DHT22;1662;49.310;8.134;2023-08-06T13:18:43;15.90;99.90
3300;DHT22;1662;49.310;8.134;2023-08-06T13:21:09;15.90;99.90
3300;DHT22;1662;49.310;8.134;2023-08-06T13:23:37;16.00;99.90
3300;DHT22;1662;49.310;8.134;2023-08-06T13:26:02;16.00;99.90
3300;DHT22;1662;49.310;8.134;2023-08-06T13:28:28;16.00;99.90
3300;DHT22;1662;49.310;8.134;2023-08-06T13:30:54;16.00;99.90
3300;DHT22;1662;49.310;8.134;2023-08-06T13:33:19;16.10;99.90
3300;DHT22;1662;49.310;8.134;2023-08-06T13:35:47;16.10;99.90
3300;DHT22;1662;49.310;8.134;2023-08-06T13:38:13;16.20;99.90
3300;DHT22;1662;49.310;8.134;2023-08-06T13:40:38;16.20;99.90
3300;DHT22;1662;49.310;8.134;2023-08-06T13:43:04;16.20;99.90
3300;DHT22;1662;49.310;8.134;2023-08-06T13:45:30;16.30;99.90
3300;DHT22;1662;49.310;8.134;2023-08-06T13:47:56;16.30;99.90
3300;DHT22;1662;49.310;8.134;2023-08-06T13:50:22;16.30;99.90
3300;DHT22;1662;49.310;8.134;2023-08-06T13:52:50;16.40;99.90
3300;DHT22;1662;49.310;8.134;2023-08-06T13:55:18;16.40;99.90
3300;DHT22;1662;49.310;8.134;2023-08-06T13:57:47;16.40;99.90
3300;DHT22;1662;49.310;8.134;2023-08-06T14:00:12;16.40;99.90
3300;DHT22;1662;49.310;8.134;2023-08-06T14:02:38;16.40;99.90
3300;DHT22;1662;49.310;8.134;2023-08-06T14:05:04;16.40;99.90
3300;DHT22;1662;49.310;8.134;2023-08-06T14:07:30;16.50;99.90
3300;DHT22;1662;49.310;8.134;2023-08-06T14:09:58;16.50;99.90
3300;DHT22;1662;49.310;8.134;2023-08-06T14:12:23;16.50;99.90
3300;DHT22;1662;49.310;8.134;2023-08-06T14:14:49;16.60;99.90
3300;DHT22;1662;49.310;8.134;2023-08-06T14:17:15;16.60;99.90
3300;DHT22;1662;49.310;8.134;2023-08-06T14:19:43;16.60;99.90
3300;DHT22;1662;49.310;8.134;2023-08-06T14:22:08;16.50;99.90
3300;DHT22;1662;49.310;8.134;2023-08-06T14:24:34;16.50;99.90
3300;DHT22;1662;49.310;8.134;2023-08-06T14:26:59;16.50;99.90
3300;DHT22;1662;49.310;8.134;2023-08-06T14:29:25;16.40;99.90
3300;DHT22;1662;49.310;8.134;2023-08-06T14:31:51;16.20;99.90
3300;DHT22;1662;49.310;8.134;2023-08-06T14:34:17;16.20;99.90
3300;DHT22;1662;49.310;8.134;2023-08-06T14:36:42;16.10;99.90
3300;DHT22;1662;49.310;8.134;2023-08-06T14:39:08;16.00;99.90
3300;DHT22;1662;49.310;8.134;2023-08-06T14:41:33;16.00;99.90
3300;DHT22;1662;49.310;8.134;2023-08-06T14:43:59;16.00;99.90
3300;DHT22;1662;49.310;8.134;2023-08-06T14:46:25;16.00;99.90
3300;DHT22;1662;49.310;8.134;2023-08-06T14:49:01;16.00;99.90
3300;DHT22;1662;49.310;8.134;2023-08-06T14:51:26;16.00;99.90
3300;DHT22;1662;49.310;8.134;2023-08-06T14:53:53;16.00;99.90
3300;DHT22;1662;49.310;8.134;2023-08-06T14:56:18;16.00;99.90
3300;DHT22;1662;49.310;8.134;2023-08-06T14:58:44;16.10;99.90
3300;DHT22;1662;49.310;8.134;2023-08-06T15:01:10;16.10;99.90
3300;DHT22;1662;49.310;8.134;2023-08-06T15:03:36;16.00;99.90
3300;DHT22;1662;49.310;8.134;2023-08-06T15:06:04;16.00;99.90
3300;DHT22;1662;49.310;8.134;2023-08-06T15:08:29;16.00;99.90
3300;DHT22;1662;49.310;8.134;2023-08-06T15:10:55;16.00;99.90
3300;DHT22;1662;49.310;8.134;2023-08-06T15:13:21;16.00;99.90
3300;DHT22;1662;49.310;8.134;2023-08-06T15:15:49;16.00;99.90
3300;DHT22;1662;49.310;8.134;2023-08-06T15:18:18;16.00;99.90
3300;DHT22;1662;49.310;8.134;2023-08-06T15:20:45;16.00;99.90
3300;DHT22;1662;49.310;8.134;2023-08-06T15:23:11;16.00;99.90
3300;DHT22;1662;49.310;8.134;2023-08-06T15:25:36;15.90;99.90
3300;DHT22;1662;49.310;8.134;2023-08-06T15:28:02;15.90;99.90
3300;DHT22;1662;49.310;8.134;2023-08-06T15:30:28;15.90;99.90
3300;DHT22;1662;49.310;8.134;2023-08-06T15:32:53;15.80;99.90
3300;DHT22;1662;49.310;8.134;2023-08-06T15:35:21;15.80;99.90
3300;DHT22;1662;49.310;8.134;2023-08-06T15:37:47;15.80;99.90
3300;DHT22;1662;49.310;8.134;2023-08-06T15:40:12;15.70;99.90
3300;DHT22;1662;49.310;8.134;2023-08-06T15:42:38;15.80;99.90
3300;DHT22;1662;49.310;8.134;2023-08-06T15:45:04;15.70;99.90
3300;DHT22;1662;49.310;8.134;2023-08-06T15:47:29;15.80;99.90
3300;DHT22;1662;49.310;8.134;2023-08-06T15:49:55;15.70;99.90
3300;DHT22;1662;49.310;8.134;2023-08-06T15:52:20;15.80;99.90
3300;DHT22;1662;49.310;8.134;2023-08-06T15:54:46;15.80;99.90
3300;DHT22;1662;49.310;8.134;2023-08-06T15:57:11;15.70;99.90
3300;DHT22;1662;49.310;8.134;2023-08-06T15:59:37;15.70;99.90
3300;DHT22;1662;49.310;8.134;2023-08-06T16:02:03;15.60;99.90
3300;DHT22;1662;49.310;8.134;2023-08-06T16:04:30;15.60;99.90
3300;DHT22;1662;49.310;8.134;2023-08-06T16:06:57;15.70;99.90
3300;DHT22;1662;49.310;8.134;2023-08-06T16:09:23;15.60;99.90
3300;DHT22;1662;49.310;8.134;2023-08-06T16:11:49;15.60;99.90
3300;DHT22;1662;49.310;8.134;2023-08-06T16:14:16;15.70;99.90
3300;DHT22;1662;49.310;8.134;2023-08-06T16:16:42;15.70;99.90